Time,TemperatureF,DewpointF,PressureIn,WindDirection,WindDirectionDegrees,WindSpeedMPH,WindSpeedGustMPH,Humidity,HourlyPrecipIn,Conditions,Clouds,dailyrainin,SoftwareType,DateUTC
2013-12-01 00:01:00,28.0,24.6,30.42,WSW,240,0.0,0.0,87,0.00,,,0.00,Wunderground v.1.15,2013-12-01 05:01:00,
2013-12-01 00:03:00,28.1,25.0,30.41,West,259,0.0,0.0,88,0.00,,,0.00,Wunderground v.1.15,2013-12-01 05:03:00,
2013-12-01 00:04:00,28.1,25.0,30.41,West,259,0.0,0.0,88,0.00,,,0.00,Wunderground v.1.15,2013-12-01 05:04:00,
2013-12-01 00:05:00,28.1,25.0,30.41,WSW,245,0.0,0.0,88,0.00,,,0.00,Wunderground v.1.15,2013-12-01 05:05:00,
2013-12-01 00:07:00,28.1,25.0,30.41,WSW,245,0.0,0.0,88,0.00,,,0.00,Wunderground v.1.15,2013-12-01 05:07:00,
2013-12-01 00:13:00,28.1,25.0,30.41,West,281,0.0,1.0,88,0.00,,,0.00,Wunderground v.1.15,2013-12-01 05:13:00,
2013-12-01 00:15:00,28.1,25.0,30.41,West,281,0.0,1.0,88,0.00,,,0.00,Wunderground v.1.15,2013-12-01 05:15:00,
2013-12-01 00:21:00,28.1,25.0,30.41,SSE,159,0.0,0.0,88,0.00,,,0.00,Wunderground v.1.15,2013-12-01 05:21:00,
2013-12-01 00:27:00,28.1,25.0,30.41,South,183,0.0,0.0,88,0.00,,,0.00,Wunderground v.1.15,2013-12-01 05:27:00,
2013-12-01 00:33:00,28.2,25.1,30.40,South,183,0.0,0.0,88,0.00,,,0.00,Wunderground v.1.15,2013-12-01 05:33:00,
2013-12-01 00:39:00,28.2,25.1,30.40,South,183,0.0,0.0,88,0.00,,,0.00,Wunderground v.1.15,2013-12-01 05:39:00,
2013-12-01 00:45:00,28.2,25.1,30.39,South,183,0.0,0.0,88,0.00,,,0.00,Wunderground v.1.15,2013-12-01 05:45:00,
2013-12-01 00:51:00,28.3,25.2,30.39,South,184,0.0,0.0,88,0.00,,,0.00,Wunderground v.1.15,2013-12-01 05:51:00,
2013-12-01 00:56:00,28.3,25.2,30.39,South,183,0.0,0.0,88,0.00,,,0.00,Wunderground v.1.15,2013-12-01 05:56:00,
2013-12-01 01:02:00,28.3,25.2,30.38,South,184,0.0,0.0,88,0.00,,,0.00,Wunderground v.1.15,2013-12-01 06:02:00,
2013-12-01 01:07:00,28.4,25.3,30.38,South,184,0.0,0.0,88,0.00,,,0.00,Wunderground v.1.15,2013-12-01 06:07:00,
2013-12-01 01:13:00,28.4,25.3,30.38,South,183,0.0,0.0,88,0.00,,,0.00,Wunderground v.1.15,2013-12-01 06:13:00,
2013-12-01 01:19:00,28.5,25.7,30.38,South,184,0.0,0.0,89,0.00,,,0.00,Wunderground v.1.15,2013-12-01 06:19:00,
2013-12-01 01:25:00,28.6,25.8,30.37,South,183,0.0,0.0,89,0.00,,,0.00,Wunderground v.1.15,2013-12-01 06:25:00,
2013-12-01 01:31:00,28.6,25.8,30.37,South,183,0.0,0.0,89,0.00,,,0.00,Wunderground v.1.15,2013-12-01 06:31:00,
2013-12-01 01:37:00,28.7,25.9,30.37,South,183,0.0,0.0,89,0.00,,,0.00,Wunderground v.1.15,2013-12-01 06:37:00,
2013-12-01 01:43:00,28.7,26.1,30.37,South,184,0.0,0.0,90,0.00,,,0.00,Wunderground v.1.15,2013-12-01 06:43:00,
2013-12-01 01:49:00,28.8,26.2,30.37,South,184,0.0,0.0,90,0.00,,,0.00,Wunderground v.1.15,2013-12-01 06:49:00,
2013-12-01 01:55:00,28.8,26.2,30.36,South,184,0.0,0.0,90,0.00,,,0.00,Wunderground v.1.15,2013-12-01 06:55:00,
2013-12-01 02:01:00,28.8,26.2,30.36,South,184,0.0,0.0,90,0.00,,,0.00,Wunderground v.1.15,2013-12-01 07:01:00,
2013-12-01 02:07:00,28.8,26.2,30.36,South,184,0.0,0.0,90,0.00,,,0.00,Wunderground v.1.15,2013-12-01 07:07:00,
2013-12-01 02:13:00,28.9,26.1,30.36,South,183,0.0,0.0,89,0.00,,,0.00,Wunderground v.1.15,2013-12-01 07:13:00,
2013-12-01 02:19:00,29.1,26.3,30.36,South,184,0.0,0.0,89,0.00,,,0.00,Wunderground v.1.15,2013-12-01 07:19:00,
2013-12-01 02:25:00,29.2,26.4,30.36,South,184,0.0,0.0,89,0.00,,,0.00,Wunderground v.1.15,2013-12-01 07:25:00,
2013-12-01 02:30:00,29.3,26.5,30.35,South,183,0.0,0.0,89,0.00,,,0.00,Wunderground v.1.15,2013-12-01 07:30:00,
2013-12-01 02:36:00,29.4,26.6,30.35,South,183,0.0,0.0,89,0.00,,,0.00,Wunderground v.1.15,2013-12-01 07:36:00,
2013-12-01 02:42:00,29.6,26.8,30.35,South,183,0.0,0.0,89,0.00,,,0.00,Wunderground v.1.15,2013-12-01 07:42:00,
2013-12-01 02:48:00,29.7,26.9,30.34,South,183,0.0,0.0,89,0.00,,,0.00,Wunderground v.1.15,2013-12-01 07:48:00,
2013-12-01 02:53:00,29.9,27.1,30.35,South,184,0.0,0.0,89,0.00,,,0.00,Wunderground v.1.15,2013-12-01 07:53:00,
2013-12-01 02:59:00,30.0,27.2,30.34,South,183,0.0,0.0,89,0.00,,,0.00,Wunderground v.1.15,2013-12-01 07:59:00,
2013-12-01 03:05:00,30.1,27.3,30.34,South,183,0.0,0.0,89,0.00,,,0.00,Wunderground v.1.15,2013-12-01 08:05:00,
2013-12-01 03:11:00,30.2,27.3,30.33,South,184,0.0,0.0,89,0.00,,,0.00,Wunderground v.1.15,2013-12-01 08:11:00,
2013-12-01 03:17:00,30.4,27.5,30.33,South,183,0.0,0.0,89,0.00,,,0.00,Wunderground v.1.15,2013-12-01 08:17:00,
2013-12-01 03:22:00,30.4,27.5,30.32,South,183,0.0,0.0,89,0.00,,,0.00,Wunderground v.1.15,2013-12-01 08:22:00,
2013-12-01 03:27:00,30.5,27.6,30.32,South,184,0.0,0.0,89,0.00,,,0.00,Wunderground v.1.15,2013-12-01 08:27:00,
2013-12-01 03:33:00,30.6,27.7,30.32,South,184,0.0,0.0,89,0.00,,,0.00,Wunderground v.1.15,2013-12-01 08:33:00,
2013-12-01 03:39:00,30.6,27.7,30.32,South,184,0.0,0.0,89,0.00,,,0.00,Wunderground v.1.15,2013-12-01 08:39:00,
2013-12-01 03:45:00,30.8,27.9,30.32,West,259,0.0,0.0,89,0.00,,,0.00,Wunderground v.1.15,2013-12-01 08:45:00,
2013-12-01 03:51:00,30.8,27.9,30.31,South,186,0.0,0.0,89,0.00,,,0.00,Wunderground v.1.15,2013-12-01 08:51:00,
2013-12-01 03:57:00,30.9,28.0,30.31,ENE,73,0.0,2.0,89,0.00,,,0.00,Wunderground v.1.15,2013-12-01 08:57:00,
2013-12-01 04:02:00,30.9,28.0,30.31,ENE,73,0.0,0.0,89,0.00,,,0.00,Wunderground v.1.15,2013-12-01 09:02:00,
2013-12-01 04:04:00,30.9,28.0,30.31,ENE,74,0.0,0.0,89,0.00,,,0.00,Wunderground v.1.15,2013-12-01 09:04:00,
2013-12-01 04:10:00,31.0,28.1,30.31,West,273,0.0,0.0,89,0.00,,,0.00,Wunderground v.1.15,2013-12-01 09:10:00,
2013-12-01 04:15:00,31.0,28.1,30.30,West,272,0.0,0.0,89,0.00,,,0.00,Wunderground v.1.15,2013-12-01 09:15:00,
2013-12-01 04:21:00,31.0,28.1,30.31,West,269,0.0,0.0,89,0.00,,,0.00,Wunderground v.1.15,2013-12-01 09:21:00,
2013-12-01 04:27:00,31.0,28.1,30.30,West,269,0.0,0.0,89,0.00,,,0.00,Wunderground v.1.15,2013-12-01 09:27:00,
2013-12-01 04:33:00,31.1,28.2,30.29,West,269,0.0,0.0,89,0.00,,,0.00,Wunderground v.1.15,2013-12-01 09:33:00,
2013-12-01 04:39:00,31.1,28.2,30.29,WSW,248,0.0,1.0,89,0.00,,,0.00,Wunderground v.1.15,2013-12-01 09:39:00,
2013-12-01 04:45:00,31.2,28.3,30.28,WSW,248,0.0,1.0,89,0.00,,,0.00,Wunderground v.1.15,2013-12-01 09:45:00,
2013-12-01 04:51:00,31.5,28.9,30.28,SW,233,0.0,3.0,90,0.00,,,0.00,Wunderground v.1.15,2013-12-01 09:51:00,
2013-12-01 04:57:00,31.5,28.6,30.28,ENE,68,1.0,3.0,89,0.00,,,0.00,Wunderground v.1.15,2013-12-01 09:57:00,
2013-12-01 05:03:00,31.7,28.8,30.28,East,101,0.0,1.0,89,0.00,,,0.00,Wunderground v.1.15,2013-12-01 10:03:00,
2013-12-01 05:09:00,31.9,29.3,30.28,East,100,0.0,1.0,90,0.00,,,0.00,Wunderground v.1.15,2013-12-01 10:09:00,
2013-12-01 05:15:00,31.8,28.9,30.28,West,270,0.0,1.0,89,0.00,,,0.00,Wunderground v.1.15,2013-12-01 10:15:00,
2013-12-01 05:21:00,32.0,29.4,30.27,ENE,68,0.0,0.0,90,0.00,,,0.00,Wunderground v.1.15,2013-12-01 10:21:00,
2013-12-01 05:27:00,32.0,29.1,30.27,West,263,0.0,1.0,89,0.00,,,0.00,Wunderground v.1.15,2013-12-01 10:27:00,
2013-12-01 05:33:00,32.0,29.4,30.27,West,263,0.0,0.0,90,0.00,,,0.00,Wunderground v.1.15,2013-12-01 10:33:00,
2013-12-01 05:38:00,32.3,30.0,30.27,ENE,68,0.0,0.0,91,0.00,,,0.00,Wunderground v.1.15,2013-12-01 10:38:00,
2013-12-01 05:44:00,32.4,29.8,30.27,NE,50,0.0,0.0,90,0.00,,,0.00,Wunderground v.1.15,2013-12-01 10:44:00,
2013-12-01 05:49:00,32.4,29.8,30.26,NE,49,0.0,0.0,90,0.00,,,0.00,Wunderground v.1.15,2013-12-01 10:49:00,
2013-12-01 05:55:00,32.6,30.3,30.26,NE,49,0.0,0.0,91,0.00,,,0.00,Wunderground v.1.15,2013-12-01 10:55:00,
2013-12-01 06:00:00,32.6,30.0,30.26,WNW,288,0.0,0.0,90,0.00,,,0.00,Wunderground v.1.15,2013-12-01 11:00:00,
2013-12-01 06:05:00,32.6,30.0,30.26,WNW,288,0.0,0.0,90,0.00,,,0.00,Wunderground v.1.15,2013-12-01 11:05:00,
2013-12-01 06:11:00,32.8,30.5,30.26,NNW,343,0.0,0.0,91,0.00,,,0.00,Wunderground v.1.15,2013-12-01 11:11:00,
2013-12-01 06:17:00,32.9,30.6,30.26,West,267,0.0,0.0,91,0.00,,,0.00,Wunderground v.1.15,2013-12-01 11:17:00,
2013-12-01 06:23:00,32.8,30.2,30.26,West,267,0.0,0.0,90,0.00,,,0.00,Wunderground v.1.15,2013-12-01 11:23:00,
2013-12-01 06:29:00,32.9,30.3,30.26,West,267,0.0,0.0,90,0.00,,,0.00,Wunderground v.1.15,2013-12-01 11:29:00,
2013-12-01 06:35:00,33.1,30.5,30.26,West,266,0.0,0.0,90,0.00,,,0.00,Wunderground v.1.15,2013-12-01 11:35:00,
2013-12-01 06:41:00,33.1,30.5,30.26,West,267,0.0,0.0,90,0.00,,,0.00,Wunderground v.1.15,2013-12-01 11:41:00,
2013-12-01 06:47:00,33.2,30.9,30.26,West,267,0.0,0.0,91,0.00,,,0.00,Wunderground v.1.15,2013-12-01 11:47:00,
2013-12-01 06:53:00,33.3,31.0,30.26,West,267,0.0,0.0,91,0.00,,,0.00,Wunderground v.1.15,2013-12-01 11:53:00,
2013-12-01 06:59:00,33.4,31.1,30.25,West,267,0.0,0.0,91,0.00,,,0.00,Wunderground v.1.15,2013-12-01 11:59:00,
2013-12-01 07:05:00,33.3,31.0,30.25,West,267,0.0,0.0,91,0.00,,,0.00,Wunderground v.1.15,2013-12-01 12:05:00,
2013-12-01 07:11:00,33.3,31.2,30.25,West,266,0.0,0.0,92,0.00,,,0.00,Wunderground v.1.15,2013-12-01 12:11:00,
2013-12-01 07:17:00,33.3,31.2,30.25,West,267,0.0,0.0,92,0.00,,,0.00,Wunderground v.1.15,2013-12-01 12:17:00,
2013-12-01 07:23:00,33.5,31.7,30.25,West,267,0.0,0.0,93,0.00,,,0.00,Wunderground v.1.15,2013-12-01 12:23:00,
2013-12-01 07:28:00,33.4,31.3,30.25,West,267,0.0,0.0,92,0.00,,,0.00,Wunderground v.1.15,2013-12-01 12:28:00,
2013-12-01 07:34:00,33.5,31.7,30.25,West,267,0.0,0.0,93,0.00,,,0.00,Wunderground v.1.15,2013-12-01 12:34:00,
2013-12-01 07:40:00,33.5,31.7,30.25,West,267,0.0,0.0,93,0.00,,,0.00,Wunderground v.1.15,2013-12-01 12:40:00,
2013-12-01 07:46:00,33.7,32.2,30.25,West,267,0.0,0.0,94,0.00,,,0.00,Wunderground v.1.15,2013-12-01 12:46:00,
2013-12-01 07:52:00,33.7,32.2,30.25,West,267,0.0,0.0,94,0.00,,,0.00,Wunderground v.1.15,2013-12-01 12:52:00,
2013-12-01 07:58:00,33.5,31.7,30.25,West,267,0.0,0.0,93,0.00,,,0.00,Wunderground v.1.15,2013-12-01 12:58:00,
2013-12-01 08:04:00,33.6,32.1,30.25,West,267,0.0,0.0,94,0.00,,,0.00,Wunderground v.1.15,2013-12-01 13:04:00,
2013-12-01 08:10:00,33.7,32.2,30.25,West,267,0.0,0.0,94,0.00,,,0.00,Wunderground v.1.15,2013-12-01 13:10:00,
2013-12-01 08:16:00,33.9,32.4,30.25,West,266,0.0,0.0,94,0.00,,,0.00,Wunderground v.1.15,2013-12-01 13:16:00,
2013-12-01 08:21:00,33.9,32.4,30.24,West,267,0.0,0.0,94,0.00,,,0.00,Wunderground v.1.15,2013-12-01 13:21:00,
2013-12-01 08:27:00,34.0,32.5,30.24,West,267,0.0,0.0,94,0.00,,,0.00,Wunderground v.1.15,2013-12-01 13:27:00,
2013-12-01 08:33:00,34.2,32.9,30.24,West,267,0.0,0.0,95,0.00,,,0.00,Wunderground v.1.15,2013-12-01 13:33:00,
2013-12-01 08:39:00,34.5,33.2,30.24,West,266,0.0,0.0,95,0.00,,,0.00,Wunderground v.1.15,2013-12-01 13:39:00,
2013-12-01 08:44:00,34.6,33.3,30.24,West,267,0.0,0.0,95,0.00,,,0.00,Wunderground v.1.15,2013-12-01 13:44:00,
2013-12-01 08:50:00,34.4,33.1,30.23,West,266,0.0,0.0,95,0.00,,,0.00,Wunderground v.1.15,2013-12-01 13:50:00,
2013-12-01 08:56:00,34.5,33.2,30.23,West,266,0.0,0.0,95,0.00,,,0.00,Wunderground v.1.15,2013-12-01 13:56:00,
2013-12-01 09:02:00,34.8,33.5,30.23,West,267,0.0,0.0,95,0.00,,,0.00,Wunderground v.1.15,2013-12-01 14:02:00,
2013-12-01 09:08:00,35.0,33.7,30.23,West,267,0.0,0.0,95,0.00,,,0.00,Wunderground v.1.15,2013-12-01 14:08:00,
2013-12-01 09:14:00,35.4,34.4,30.23,NE,39,0.0,0.0,96,0.00,,,0.01,Wunderground v.1.15,2013-12-01 14:14:00,
2013-12-01 09:19:00,35.5,34.5,30.23,West,276,0.0,0.0,96,0.00,,,0.01,Wunderground v.1.15,2013-12-01 14:19:00,
2013-12-01 09:25:00,35.6,34.6,30.23,West,278,0.0,2.0,96,0.00,,,0.01,Wunderground v.1.15,2013-12-01 14:25:00,
2013-12-01 09:31:00,35.7,34.7,30.23,West,262,0.0,0.0,96,0.00,,,0.01,Wunderground v.1.15,2013-12-01 14:31:00,
2013-12-01 09:37:00,35.8,34.8,30.22,ENE,76,0.0,1.0,96,0.00,,,0.01,Wunderground v.1.15,2013-12-01 14:37:00,
2013-12-01 09:42:00,35.8,34.8,30.23,NW,305,0.0,1.0,96,0.00,,,0.01,Wunderground v.1.15,2013-12-01 14:42:00,
2013-12-01 09:48:00,35.7,34.7,30.23,WSW,252,0.0,1.0,96,0.00,,,0.01,Wunderground v.1.15,2013-12-01 14:48:00,
2013-12-01 09:54:00,35.9,34.9,30.22,SE,124,0.0,0.0,96,0.00,,,0.01,Wunderground v.1.15,2013-12-01 14:54:00,
2013-12-01 09:59:00,36.2,35.2,30.22,ENE,76,1.0,2.0,96,0.00,,,0.01,Wunderground v.1.15,2013-12-01 14:59:00,
2013-12-01 10:04:00,36.3,35.3,30.22,West,281,1.0,2.0,96,0.00,,,0.01,Wunderground v.1.15,2013-12-01 15:04:00,
2013-12-01 10:10:00,36.3,35.3,30.22,ENE,71,1.0,1.0,96,0.00,,,0.01,Wunderground v.1.15,2013-12-01 15:10:00,
2013-12-01 10:15:00,36.6,35.6,30.22,NE,34,0.0,2.0,96,0.00,,,0.01,Wunderground v.1.15,2013-12-01 15:15:00,
2013-12-01 10:20:00,36.5,35.5,30.22,WNW,293,0.0,0.0,96,0.00,,,0.01,Wunderground v.1.15,2013-12-01 15:20:00,
2013-12-01 10:26:00,36.7,35.7,30.21,NE,50,0.0,1.0,96,0.00,,,0.01,Wunderground v.1.15,2013-12-01 15:26:00,
2013-12-01 10:32:00,36.9,35.9,30.20,ESE,122,0.0,0.0,96,0.00,,,0.01,Wunderground v.1.15,2013-12-01 15:32:00,
2013-12-01 10:38:00,36.7,35.7,30.20,NW,322,0.0,2.0,96,0.00,,,0.01,Wunderground v.1.15,2013-12-01 15:38:00,
2013-12-01 10:44:00,37.0,36.2,30.20,WSW,250,1.0,1.0,97,0.00,,,0.01,Wunderground v.1.15,2013-12-01 15:44:00,
2013-12-01 10:50:00,36.9,35.9,30.19,WSW,250,0.0,0.0,96,0.00,,,0.01,Wunderground v.1.15,2013-12-01 15:50:00,
2013-12-01 10:56:00,37.3,36.5,30.18,NE,51,0.0,0.0,97,0.00,,,0.01,Wunderground v.1.15,2013-12-01 15:56:00,
2013-12-01 11:01:00,37.5,36.7,30.18,West,271,0.0,1.0,97,0.00,,,0.01,Wunderground v.1.15,2013-12-01 16:01:00,
2013-12-01 11:06:00,37.5,36.7,30.18,West,267,0.0,1.0,97,0.00,,,0.01,Wunderground v.1.15,2013-12-01 16:06:00,
2013-12-01 11:12:00,37.7,36.9,30.18,SSW,205,0.0,0.0,97,0.00,,,0.01,Wunderground v.1.15,2013-12-01 16:12:00,
2013-12-01 11:18:00,38.0,37.2,30.17,ENE,61,0.0,0.0,97,0.00,,,0.01,Wunderground v.1.15,2013-12-01 16:18:00,
2013-12-01 11:24:00,38.4,37.6,30.17,NE,36,0.0,0.0,97,0.00,,,0.01,Wunderground v.1.15,2013-12-01 16:24:00,
2013-12-01 11:30:00,38.4,37.6,30.17,NE,36,0.0,0.0,97,0.00,,,0.01,Wunderground v.1.15,2013-12-01 16:30:00,
2013-12-01 11:36:00,39.0,38.2,30.16,NE,36,0.0,0.0,97,0.00,,,0.01,Wunderground v.1.15,2013-12-01 16:36:00,
2013-12-01 11:42:00,39.6,38.8,30.16,NE,36,0.0,0.0,97,0.00,,,0.01,Wunderground v.1.15,2013-12-01 16:42:00,
2013-12-01 11:48:00,39.8,39.0,30.16,NE,36,0.0,0.0,97,0.00,,,0.01,Wunderground v.1.15,2013-12-01 16:48:00,
2013-12-01 11:54:00,39.7,38.9,30.15,WNW,298,0.0,0.0,97,0.00,,,0.01,Wunderground v.1.15,2013-12-01 16:54:00,
2013-12-01 12:00:00,39.9,39.1,30.15,WNW,294,0.0,0.0,97,0.00,,,0.01,Wunderground v.1.15,2013-12-01 17:00:00,
2013-12-01 12:06:00,40.9,40.1,30.15,West,277,0.0,0.0,97,0.00,,,0.01,Wunderground v.1.15,2013-12-01 17:06:00,
2013-12-01 12:12:00,41.8,41.0,30.15,West,274,0.0,0.0,97,0.00,,,0.01,Wunderground v.1.15,2013-12-01 17:12:00,
2013-12-01 12:18:00,42.1,41.3,30.14,West,267,0.0,0.0,97,0.00,,,0.01,Wunderground v.1.15,2013-12-01 17:18:00,
2013-12-01 12:23:00,42.2,41.4,30.14,West,267,0.0,0.0,97,0.00,,,0.01,Wunderground v.1.15,2013-12-01 17:23:00,
2013-12-01 12:29:00,42.4,41.6,30.13,West,267,0.0,0.0,97,0.00,,,0.02,Wunderground v.1.15,2013-12-01 17:29:00,
2013-12-01 12:35:00,42.5,41.7,30.13,West,267,0.0,0.0,97,0.08,,,0.03,Wunderground v.1.15,2013-12-01 17:35:00,
2013-12-01 12:41:00,43.0,42.2,30.12,West,267,0.0,0.0,97,0.07,,,0.04,Wunderground v.1.15,2013-12-01 17:41:00,
2013-12-01 12:47:00,42.8,41.7,30.12,West,267,0.0,0.0,96,0.09,,,0.05,Wunderground v.1.15,2013-12-01 17:47:00,
2013-12-01 12:53:00,42.7,41.6,30.11,WNW,303,0.0,0.0,96,0.12,,,0.06,Wunderground v.1.15,2013-12-01 17:53:00,
2013-12-01 12:59:00,42.9,42.1,30.11,NNE,18,0.0,0.0,97,0.10,,,0.07,Wunderground v.1.15,2013-12-01 17:59:00,
2013-12-01 13:05:00,42.8,42.0,30.11,NNE,17,0.0,0.0,97,0.09,,,0.08,Wunderground v.1.15,2013-12-01 18:05:00,
2013-12-01 13:11:00,42.9,42.1,30.10,NNE,18,0.0,0.0,97,0.05,,,0.08,Wunderground v.1.15,2013-12-01 18:11:00,
2013-12-01 13:17:00,42.9,42.1,30.10,NNE,12,0.0,0.0,97,0.04,,,0.08,Wunderground v.1.15,2013-12-01 18:17:00,
2013-12-01 13:23:00,42.7,41.9,30.09,WNW,288,0.0,0.0,97,0.00,,,0.09,Wunderground v.1.15,2013-12-01 18:23:00,
2013-12-01 13:28:00,42.5,41.7,30.09,WNW,288,0.0,0.0,97,0.12,,,0.10,Wunderground v.1.15,2013-12-01 18:28:00,
2013-12-01 13:34:00,42.3,41.2,30.09,WNW,283,0.0,0.0,96,0.11,,,0.11,Wunderground v.1.15,2013-12-01 18:34:00,
2013-12-01 13:39:00,42.0,40.9,30.09,WNW,284,0.0,0.0,96,0.07,,,0.12,Wunderground v.1.15,2013-12-01 18:39:00,
2013-12-01 13:45:00,42.2,41.4,30.08,NNE,12,0.0,0.0,97,0.07,,,0.12,Wunderground v.1.15,2013-12-01 18:45:00,
2013-12-01 13:50:00,42.5,41.7,30.08,NNE,12,0.0,0.0,97,0.07,,,0.13,Wunderground v.1.15,2013-12-01 18:50:00,
2013-12-01 13:56:00,42.7,41.9,30.08,NNE,12,0.0,0.0,97,0.08,,,0.14,Wunderground v.1.15,2013-12-01 18:56:00,
2013-12-01 14:02:00,42.8,42.0,30.07,NNE,12,0.0,0.0,97,0.09,,,0.15,Wunderground v.1.15,2013-12-01 19:02:00,
2013-12-01 14:08:00,42.7,41.9,30.07,WSW,255,0.0,0.0,97,0.25,,,0.17,Wunderground v.1.15,2013-12-01 19:08:00,
2013-12-01 14:13:00,42.6,41.8,30.07,NW,310,1.0,2.0,97,0.41,,,0.20,Wunderground v.1.15,2013-12-01 19:13:00,
2013-12-01 14:19:00,42.9,42.1,30.07,West,260,1.0,2.0,97,0.17,,,0.22,Wunderground v.1.15,2013-12-01 19:19:00,
2013-12-01 14:25:00,43.8,43.3,30.07,East,79,2.0,3.0,98,0.10,,,0.23,Wunderground v.1.15,2013-12-01 19:25:00,
2013-12-01 14:31:00,44.1,43.6,30.07,NE,41,2.0,2.0,98,0.08,,,0.24,Wunderground v.1.15,2013-12-01 19:31:00,
2013-12-01 14:37:00,44.1,43.6,30.06,NNE,32,1.0,2.0,98,0.06,,,0.24,Wunderground v.1.15,2013-12-01 19:37:00,
2013-12-01 14:43:00,44.6,44.1,30.06,NNE,16,0.0,0.0,98,0.04,,,0.24,Wunderground v.1.15,2013-12-01 19:43:00,
2013-12-01 14:49:00,44.9,44.4,30.06,NNE,16,0.0,0.0,98,0.00,,,0.24,Wunderground v.1.15,2013-12-01 19:49:00,
2013-12-01 14:53:00,44.8,44.3,30.06,West,275,0.0,0.0,98,0.00,,,0.24,Wunderground v.1.15,2013-12-01 19:53:00,
2013-12-01 14:59:00,44.5,43.7,30.06,West,275,0.0,0.0,97,0.00,,,0.24,Wunderground v.1.15,2013-12-01 19:59:00,
2013-12-01 15:05:00,44.6,43.8,30.06,West,275,0.0,0.0,97,0.00,,,0.24,Wunderground v.1.15,2013-12-01 20:05:00,
2013-12-01 15:11:00,44.7,43.9,30.06,West,276,0.0,0.0,97,0.00,,,0.24,Wunderground v.1.15,2013-12-01 20:11:00,
2013-12-01 15:16:00,44.5,43.7,30.06,West,275,0.0,0.0,97,0.00,,,0.24,Wunderground v.1.15,2013-12-01 20:16:00,
2013-12-01 15:22:00,44.4,43.6,30.06,West,276,0.0,0.0,97,0.00,,,0.24,Wunderground v.1.15,2013-12-01 20:22:00,
2013-12-01 15:28:00,44.2,43.4,30.06,West,275,0.0,0.0,97,0.00,,,0.24,Wunderground v.1.15,2013-12-01 20:28:00,
2013-12-01 15:33:00,44.3,43.5,30.05,ENE,73,0.0,0.0,97,0.00,,,0.24,Wunderground v.1.15,2013-12-01 20:33:00,
2013-12-01 15:39:00,44.2,43.4,30.05,ENE,73,0.0,0.0,97,0.00,,,0.24,Wunderground v.1.15,2013-12-01 20:39:00,
2013-12-01 15:45:00,43.6,42.8,30.05,ENE,73,0.0,0.0,97,0.00,,,0.24,Wunderground v.1.15,2013-12-01 20:45:00,
2013-12-01 15:50:00,43.2,42.4,30.05,ENE,74,0.0,0.0,97,0.00,,,0.24,Wunderground v.1.15,2013-12-01 20:50:00,
2013-12-01 15:56:00,42.9,42.1,30.05,ENE,73,0.0,0.0,97,0.00,,,0.24,Wunderground v.1.15,2013-12-01 20:56:00,
2013-12-01 16:02:00,42.6,41.8,30.05,ENE,73,0.0,0.0,97,0.00,,,0.24,Wunderground v.1.15,2013-12-01 21:02:00,
2013-12-01 16:08:00,42.4,41.6,30.04,ENE,74,0.0,0.0,97,0.00,,,0.24,Wunderground v.1.15,2013-12-01 21:08:00,
2013-12-01 16:14:00,42.1,41.3,30.04,ENE,74,0.0,0.0,97,0.00,,,0.24,Wunderground v.1.15,2013-12-01 21:14:00,
2013-12-01 16:20:00,42.0,41.2,30.04,ENE,74,0.0,0.0,97,0.00,,,0.24,Wunderground v.1.15,2013-12-01 21:20:00,
2013-12-01 16:26:00,42.1,41.3,30.04,ENE,74,0.0,0.0,97,0.00,,,0.24,Wunderground v.1.15,2013-12-01 21:26:00,
2013-12-01 16:31:00,42.1,41.3,30.04,ENE,74,0.0,0.0,97,0.00,,,0.24,Wunderground v.1.15,2013-12-01 21:31:00,
2013-12-01 16:37:00,42.1,41.3,30.04,ENE,74,0.0,0.0,97,0.00,,,0.24,Wunderground v.1.15,2013-12-01 21:37:00,
2013-12-01 16:42:00,42.0,41.2,30.04,ENE,74,0.0,0.0,97,0.00,,,0.24,Wunderground v.1.15,2013-12-01 21:42:00,
2013-12-01 16:48:00,41.9,41.1,30.04,ENE,74,0.0,0.0,97,0.00,,,0.24,Wunderground v.1.15,2013-12-01 21:48:00,
2013-12-01 16:54:00,41.7,40.9,30.04,ENE,73,0.0,0.0,97,0.00,,,0.24,Wunderground v.1.15,2013-12-01 21:54:00,
2013-12-01 17:00:00,41.5,40.7,30.04,ENE,74,0.0,0.0,97,0.00,,,0.24,Wunderground v.1.15,2013-12-01 22:00:00,
2013-12-01 17:05:00,41.5,40.7,30.04,ENE,73,0.0,0.0,97,0.00,,,0.24,Wunderground v.1.15,2013-12-01 22:05:00,
2013-12-01 17:11:00,41.6,41.1,30.04,ENE,73,0.0,0.0,98,0.00,,,0.24,Wunderground v.1.15,2013-12-01 22:11:00,
2013-12-01 17:17:00,41.6,41.1,30.04,ENE,73,0.0,0.0,98,0.00,,,0.24,Wunderground v.1.15,2013-12-01 22:17:00,
2013-12-01 17:22:00,41.5,41.0,30.04,ENE,74,0.0,0.0,98,0.00,,,0.24,Wunderground v.1.15,2013-12-01 22:22:00,
2013-12-01 17:28:00,41.2,40.7,30.04,ENE,74,0.0,0.0,98,0.00,,,0.24,Wunderground v.1.15,2013-12-01 22:28:00,
2013-12-01 17:34:00,40.8,40.0,30.04,ENE,73,0.0,0.0,97,0.00,,,0.24,Wunderground v.1.15,2013-12-01 22:34:00,
2013-12-01 17:40:00,40.4,39.6,30.03,ENE,73,0.0,0.0,97,0.00,,,0.24,Wunderground v.1.15,2013-12-01 22:40:00,
2013-12-01 17:46:00,40.2,39.4,30.03,ENE,67,0.0,0.0,97,0.00,,,0.24,Wunderground v.1.15,2013-12-01 22:46:00,
2013-12-01 17:52:00,40.0,39.2,30.03,ENE,67,0.0,0.0,97,0.00,,,0.24,Wunderground v.1.15,2013-12-01 22:52:00,
2013-12-01 17:58:00,39.9,39.1,30.03,ENE,66,0.0,0.0,97,0.00,,,0.24,Wunderground v.1.15,2013-12-01 22:58:00,
2013-12-01 18:04:00,39.6,38.8,30.03,ENE,66,0.0,0.0,97,0.00,,,0.24,Wunderground v.1.15,2013-12-01 23:04:00,
2013-12-01 18:10:00,39.5,38.7,30.03,NNE,16,0.0,0.0,97,0.00,,,0.24,Wunderground v.1.15,2013-12-01 23:10:00,
2013-12-01 18:16:00,39.2,38.4,30.03,NNE,16,0.0,0.0,97,0.00,,,0.24,Wunderground v.1.15,2013-12-01 23:16:00,
2013-12-01 18:22:00,39.2,38.7,30.04,NNE,16,0.0,0.0,98,0.00,,,0.24,Wunderground v.1.15,2013-12-01 23:22:00,
2013-12-01 18:28:00,39.4,38.9,30.04,NNE,17,0.0,0.0,98,0.00,,,0.24,Wunderground v.1.15,2013-12-01 23:28:00,
2013-12-01 18:34:00,39.7,39.2,30.04,NNE,16,0.0,0.0,98,0.00,,,0.24,Wunderground v.1.15,2013-12-01 23:34:00,
2013-12-01 18:40:00,40.0,39.5,30.04,NNE,16,0.0,0.0,98,0.00,,,0.24,Wunderground v.1.15,2013-12-01 23:40:00,
2013-12-01 18:45:00,40.3,39.8,30.04,NNE,16,0.0,0.0,98,0.00,,,0.24,Wunderground v.1.15,2013-12-01 23:45:00,
2013-12-01 18:50:00,40.3,39.8,30.04,WNW,290,0.0,0.0,98,0.00,,,0.24,Wunderground v.1.15,2013-12-01 23:50:00,
2013-12-01 18:56:00,40.0,39.5,30.04,WNW,290,0.0,0.0,98,0.00,,,0.24,Wunderground v.1.15,2013-12-01 23:56:00,
2013-12-01 19:02:00,40.3,39.8,30.04,WNW,290,0.0,0.0,98,0.00,,,0.24,Wunderground v.1.15,2013-12-02 00:02:00,
2013-12-01 19:07:00,40.9,40.4,30.04,WNW,294,0.0,0.0,98,0.00,,,0.24,Wunderground v.1.15,2013-12-02 00:07:00,
2013-12-01 19:13:00,41.0,40.5,30.04,WNW,293,0.0,0.0,98,0.00,,,0.24,Wunderground v.1.15,2013-12-02 00:13:00,
2013-12-01 19:19:00,40.7,40.2,30.04,WNW,294,0.0,0.0,98,0.00,,,0.24,Wunderground v.1.15,2013-12-02 00:19:00,
2013-12-01 19:25:00,40.5,40.0,30.03,WNW,294,0.0,0.0,98,0.00,,,0.24,Wunderground v.1.15,2013-12-02 00:25:00,
2013-12-01 19:31:00,40.5,40.0,30.03,WNW,294,0.0,0.0,98,0.00,,,0.24,Wunderground v.1.15,2013-12-02 00:31:00,
2013-12-01 19:37:00,40.6,40.1,30.03,WNW,294,0.0,0.0,98,0.00,,,0.24,Wunderground v.1.15,2013-12-02 00:37:00,
2013-12-01 19:43:00,41.0,40.5,30.04,NW,319,0.0,0.0,98,0.00,,,0.24,Wunderground v.1.15,2013-12-02 00:43:00,
2013-12-01 19:49:00,41.5,41.0,30.04,North,11,0.0,0.0,98,0.00,,,0.24,Wunderground v.1.15,2013-12-02 00:49:00,
2013-12-01 19:55:00,41.7,41.2,30.04,NE,47,0.0,1.0,98,0.00,,,0.24,Wunderground v.1.15,2013-12-02 00:55:00,
2013-12-01 20:01:00,41.6,41.1,30.04,West,273,1.0,1.0,98,0.00,,,0.24,Wunderground v.1.15,2013-12-02 01:01:00,
2013-12-01 20:07:00,41.6,41.1,30.04,West,259,0.0,1.0,98,0.00,,,0.24,Wunderground v.1.15,2013-12-02 01:07:00,
2013-12-01 20:13:00,41.4,40.9,30.03,NNE,32,0.0,2.0,98,0.00,,,0.24,Wunderground v.1.15,2013-12-02 01:13:00,
2013-12-01 20:19:00,41.4,40.9,30.03,North,8,1.0,2.0,98,0.00,,,0.24,Wunderground v.1.15,2013-12-02 01:19:00,
2013-12-01 20:24:00,41.4,40.9,30.03,NNE,25,1.0,2.0,98,0.00,,,0.24,Wunderground v.1.15,2013-12-02 01:24:00,
2013-12-01 20:30:00,41.3,40.8,30.03,WNW,287,0.0,0.0,98,0.00,,,0.24,Wunderground v.1.15,2013-12-02 01:30:00,
2013-12-01 20:36:00,41.2,40.7,30.03,WNW,287,0.0,0.0,98,0.00,,,0.24,Wunderground v.1.15,2013-12-02 01:36:00,
2013-12-01 20:42:00,41.1,40.6,30.03,NW,305,0.0,0.0,98,0.00,,,0.24,Wunderground v.1.15,2013-12-02 01:42:00,
2013-12-01 20:48:00,41.1,40.6,30.03,NW,309,0.0,1.0,98,0.00,,,0.24,Wunderground v.1.15,2013-12-02 01:48:00,
2013-12-01 20:53:00,41.0,40.5,30.02,North,354,0.0,1.0,98,0.00,,,0.24,Wunderground v.1.15,2013-12-02 01:53:00,
2013-12-01 20:59:00,40.8,40.3,30.02,North,353,0.0,1.0,98,0.00,,,0.24,Wunderground v.1.15,2013-12-02 01:59:00,
2013-12-01 21:05:00,40.6,40.1,30.03,North,352,0.0,0.0,98,0.00,,,0.24,Wunderground v.1.15,2013-12-02 02:05:00,
2013-12-01 21:11:00,40.3,39.8,30.02,North,352,0.0,0.0,98,0.00,,,0.24,Wunderground v.1.15,2013-12-02 02:11:00,
2013-12-01 21:17:00,40.2,39.7,30.02,North,350,0.0,2.0,98,0.00,,,0.24,Wunderground v.1.15,2013-12-02 02:17:00,
2013-12-01 21:23:00,40.1,39.6,30.02,NW,322,0.0,1.0,98,0.00,,,0.24,Wunderground v.1.15,2013-12-02 02:23:00,
2013-12-01 21:28:00,40.0,39.5,30.02,NNW,334,0.0,1.0,98,0.00,,,0.24,Wunderground v.1.15,2013-12-02 02:28:00,
2013-12-01 21:34:00,40.0,39.5,30.02,NNE,28,1.0,3.0,98,0.00,,,0.24,Wunderground v.1.15,2013-12-02 02:34:00,
2013-12-01 21:40:00,40.0,39.5,30.02,NNE,28,1.0,1.0,98,0.00,,,0.24,Wunderground v.1.15,2013-12-02 02:40:00,
2013-12-01 21:46:00,39.9,39.4,30.02,NNE,19,0.0,1.0,98,0.00,,,0.24,Wunderground v.1.15,2013-12-02 02:46:00,
2013-12-01 21:52:00,39.8,39.3,30.02,NNE,19,0.0,0.0,98,0.00,,,0.24,Wunderground v.1.15,2013-12-02 02:52:00,
2013-12-01 21:58:00,39.7,39.2,30.02,NNW,342,0.0,3.0,98,0.00,,,0.24,Wunderground v.1.15,2013-12-02 02:58:00,
2013-12-01 22:04:00,39.6,39.1,30.02,NW,323,0.0,0.0,98,0.00,,,0.24,Wunderground v.1.15,2013-12-02 03:04:00,
2013-12-01 22:09:00,39.6,39.1,30.02,NNE,23,0.0,2.0,98,0.00,,,0.24,Wunderground v.1.15,2013-12-02 03:09:00,
2013-12-01 22:15:00,39.6,39.1,30.02,North,351,0.0,1.0,98,0.00,,,0.24,Wunderground v.1.15,2013-12-02 03:15:00,
2013-12-01 22:21:00,39.5,39.0,30.02,North,353,0.0,0.0,98,0.00,,,0.24,Wunderground v.1.15,2013-12-02 03:21:00,
2013-12-01 22:27:00,39.5,39.0,30.02,North,352,0.0,0.0,98,0.00,,,0.24,Wunderground v.1.15,2013-12-02 03:27:00,
2013-12-01 22:33:00,39.3,38.8,30.02,NNW,345,0.0,1.0,98,0.00,,,0.24,Wunderground v.1.15,2013-12-02 03:33:00,
2013-12-01 22:39:00,39.3,38.8,30.02,NE,41,0.0,2.0,98,0.00,,,0.24,Wunderground v.1.15,2013-12-02 03:39:00,
2013-12-01 22:44:00,39.3,38.8,30.02,NE,45,1.0,2.0,98,0.00,,,0.24,Wunderground v.1.15,2013-12-02 03:44:00,
2013-12-01 22:50:00,39.2,38.7,30.02,North,359,1.0,1.0,98,0.00,,,0.24,Wunderground v.1.15,2013-12-02 03:50:00,
2013-12-01 22:56:00,39.2,38.7,30.02,NNW,347,1.0,2.0,98,0.00,,,0.24,Wunderground v.1.15,2013-12-02 03:56:00,
2013-12-01 23:02:00,39.1,38.6,30.01,NNW,337,0.0,0.0,98,0.00,,,0.24,Wunderground v.1.15,2013-12-02 04:02:00,
2013-12-01 23:08:00,39.0,38.5,30.01,NNE,12,1.0,3.0,98,0.00,,,0.24,Wunderground v.1.15,2013-12-02 04:08:00,
2013-12-01 23:13:00,38.9,38.4,30.00,NNW,345,1.0,1.0,98,0.00,,,0.24,Wunderground v.1.15,2013-12-02 04:13:00,
2013-12-01 23:19:00,38.9,38.4,30.00,NNW,345,0.0,1.0,98,0.00,,,0.24,Wunderground v.1.15,2013-12-02 04:19:00,
2013-12-01 23:25:00,38.8,38.3,30.00,North,6,0.0,1.0,98,0.00,,,0.24,Wunderground v.1.15,2013-12-02 04:25:00,
2013-12-01 23:31:00,38.7,38.2,30.00,North,6,0.0,0.0,98,0.00,,,0.24,Wunderground v.1.15,2013-12-02 04:31:00,
2013-12-01 23:37:00,38.5,38.0,30.00,North,4,0.0,0.0,98,0.00,,,0.24,Wunderground v.1.15,2013-12-02 04:37:00,
2013-12-01 23:43:00,38.4,37.9,30.00,North,5,0.0,0.0,98,0.00,,,0.24,Wunderground v.1.15,2013-12-02 04:43:00,
2013-12-01 23:49:00,38.3,37.8,30.01,WNW,282,0.0,0.0,98,0.00,,,0.24,Wunderground v.1.15,2013-12-02 04:49:00,
2013-12-01 23:55:00,38.3,37.8,30.01,NNW,343,0.0,1.0,98,0.00,,,0.24,Wunderground v.1.15,2013-12-02 04:55:00,